sensor_id;sensor_type;location;lat;lon;timestamp;P1;durP1;ratioP1;P2;durP2;ratioP2
32138;SDS011;18644;48.700;9.210;2023-04-24T00:01:35;0.88;;;0.60;;
32138;SDS011;18644;48.700;9.210;2023-04-24T00:04:04;0.55;;;0.55;;
32138;SDS011;18644;48.700;9.210;2023-04-24T00:06:32;0.60;;;0.50;;
32138;SDS011;18644;48.700;9.210;2023-04-24T00:08:59;0.85;;;0.60;;
32138;SDS011;18644;48.700;9.210;2023-04-24T00:11:27;0.60;;;0.60;;
32138;SDS011;18644;48.700;9.210;2023-04-24T00:13:54;1.23;;;0.55;;
32138;SDS011;18644;48.700;9.210;2023-04-24T00:16:22;1.13;;;0.82;;
32138;SDS011;18644;48.700;9.210;2023-04-24T00:18:49;0.70;;;0.63;;
32138;SDS011;18644;48.700;9.210;2023-04-24T00:21:17;5.65;;;0.70;;
32138;SDS011;18644;48.700;9.210;2023-04-24T00:23:44;1.08;;;0.68;;
32138;SDS011;18644;48.700;9.210;2023-04-24T00:26:11;0.95;;;0.63;;
32138;SDS011;18644;48.700;9.210;2023-04-24T00:28:39;0.65;;;0.50;;
32138;SDS011;18644;48.700;9.210;2023-04-24T00:31:06;2.00;;;0.65;;
32138;SDS011;18644;48.700;9.210;2023-04-24T00:33:33;0.73;;;0.50;;
32138;SDS011;18644;48.700;9.210;2023-04-24T00:36:00;1.40;;;0.70;;
32138;SDS011;18644;48.700;9.210;2023-04-24T00:38:27;0.65;;;0.60;;
32138;SDS011;18644;48.700;9.210;2023-04-24T00:40:54;0.75;;;0.70;;
32138;SDS011;18644;48.700;9.210;2023-04-24T00:43:20;0.50;;;0.50;;
32138;SDS011;18644;48.700;9.210;2023-04-24T00:45:51;0.47;;;0.45;;
32138;SDS011;18644;48.700;9.210;2023-04-24T00:48:18;0.52;;;0.52;;
32138;SDS011;18644;48.700;9.210;2023-04-24T00:50:46;2.28;;;0.57;;
32138;SDS011;18644;48.700;9.210;2023-04-24T00:53:13;0.50;;;0.50;;
32138;SDS011;18644;48.700;9.210;2023-04-24T00:55:40;2.70;;;0.80;;
32138;SDS011;18644;48.700;9.210;2023-04-24T00:58:07;5.80;;;1.02;;
32138;SDS011;18644;48.700;9.210;2023-04-24T01:00:34;0.55;;;0.50;;
32138;SDS011;18644;48.700;9.210;2023-04-24T01:03:02;0.50;;;0.50;;
32138;SDS011;18644;48.700;9.210;2023-04-24T01:05:31;0.63;;;0.63;;
32138;SDS011;18644;48.700;9.210;2023-04-24T01:07:59;0.60;;;0.60;;
32138;SDS011;18644;48.700;9.210;2023-04-24T01:10:27;3.90;;;1.23;;
32138;SDS011;18644;48.700;9.210;2023-04-24T01:12:55;0.50;;;0.50;;
32138;SDS011;18644;48.700;9.210;2023-04-24T01:15:24;0.63;;;0.63;;
32138;SDS011;18644;48.700;9.210;2023-04-24T01:17:50;1.75;;;0.60;;
32138;SDS011;18644;48.700;9.210;2023-04-24T01:20:19;0.50;;;0.50;;
32138;SDS011;18644;48.700;9.210;2023-04-24T01:22:48;1.25;;;0.70;;
32138;SDS011;18644;48.700;9.210;2023-04-24T01:25:15;0.52;;;0.50;;
32138;SDS011;18644;48.700;9.210;2023-04-24T01:27:42;0.73;;;0.60;;
32138;SDS011;18644;48.700;9.210;2023-04-24T01:30:09;0.65;;;0.65;;
32138;SDS011;18644;48.700;9.210;2023-04-24T01:32:38;0.95;;;0.68;;
32138;SDS011;18644;48.700;9.210;2023-04-24T01:35:07;0.60;;;0.60;;
32138;SDS011;18644;48.700;9.210;2023-04-24T01:37:34;0.45;;;0.45;;
32138;SDS011;18644;48.700;9.210;2023-04-24T01:40:03;0.55;;;0.52;;
32138;SDS011;18644;48.700;9.210;2023-04-24T01:42:32;0.50;;;0.50;;
32138;SDS011;18644;48.700;9.210;2023-04-24T01:45:01;0.55;;;0.52;;
32138;SDS011;18644;48.700;9.210;2023-04-24T01:47:30;2.45;;;0.65;;
32138;SDS011;18644;48.700;9.210;2023-04-24T01:49:58;0.60;;;0.60;;
32138;SDS011;18644;48.700;9.210;2023-04-24T01:52:25;0.60;;;0.60;;
32138;SDS011;18644;48.700;9.210;2023-04-24T01:54:53;0.63;;;0.50;;
32138;SDS011;18644;48.700;9.210;2023-04-24T01:57:22;1.05;;;0.57;;
32138;SDS011;18644;48.700;9.210;2023-04-24T01:59:52;0.55;;;0.55;;
32138;SDS011;18644;48.700;9.210;2023-04-24T02:02:25;1.27;;;0.60;;
32138;SDS011;18644;48.700;9.210;2023-04-24T02:13:02;0.65;;;0.50;;
32138;SDS011;18644;48.700;9.210;2023-04-24T02:15:16;0.95;;;0.60;;
32138;SDS011;18644;48.700;9.210;2023-04-24T02:17:45;0.70;;;0.63;;
32138;SDS011;18644;48.700;9.210;2023-04-24T02:20:11;0.80;;;0.60;;
32138;SDS011;18644;48.700;9.210;2023-04-24T02:22:38;0.65;;;0.55;;
32138;SDS011;18644;48.700;9.210;2023-04-24T02:25:05;2.38;;;0.70;;
32138;SDS011;18644;48.700;9.210;2023-04-24T02:27:33;0.40;;;0.40;;
32138;SDS011;18644;48.700;9.210;2023-04-24T02:30:00;0.60;;;0.50;;
32138;SDS011;18644;48.700;9.210;2023-04-24T02:32:29;0.50;;;0.50;;
32138;SDS011;18644;48.700;9.210;2023-04-24T02:34:56;0.60;;;0.55;;
32138;SDS011;18644;48.700;9.210;2023-04-24T02:37:24;0.75;;;0.57;;
32138;SDS011;18644;48.700;9.210;2023-04-24T02:39:51;0.68;;;0.60;;
32138;SDS011;18644;48.700;9.210;2023-04-24T02:42:17;0.55;;;0.55;;
32138;SDS011;18644;48.700;9.210;2023-04-24T02:44:44;0.88;;;0.52;;
32138;SDS011;18644;48.700;9.210;2023-04-24T02:47:11;0.73;;;0.57;;
32138;SDS011;18644;48.700;9.210;2023-04-24T02:49:39;0.50;;;0.50;;
32138;SDS011;18644;48.700;9.210;2023-04-24T02:52:06;0.60;;;0.60;;
32138;SDS011;18644;48.700;9.210;2023-04-24T02:54:33;0.70;;;0.60;;
32138;SDS011;18644;48.700;9.210;2023-04-24T02:57:00;1.17;;;0.50;;
32138;SDS011;18644;48.700;9.210;2023-04-24T02:59:27;0.68;;;0.55;;
32138;SDS011;18644;48.700;9.210;2023-04-24T03:01:54;0.60;;;0.60;;
32138;SDS011;18644;48.700;9.210;2023-04-24T03:04:21;0.52;;;0.52;;
32138;SDS011;18644;48.700;9.210;2023-04-24T03:06:49;0.60;;;0.60;;
32138;SDS011;18644;48.700;9.210;2023-04-24T03:09:17;2.53;;;0.52;;
32138;SDS011;18644;48.700;9.210;2023-04-24T03:11:44;1.60;;;0.50;;
32138;SDS011;18644;48.700;9.210;2023-04-24T03:14:11;0.50;;;0.50;;
32138;SDS011;18644;48.700;9.210;2023-04-24T03:16:38;1.27;;;0.70;;
32138;SDS011;18644;48.700;9.210;2023-04-24T03:19:05;0.52;;;0.52;;
32138;SDS011;18644;48.700;9.210;2023-04-24T03:21:32;0.60;;;0.60;;
32138;SDS011;18644;48.700;9.210;2023-04-24T03:24:02;0.65;;;0.50;;
32138;SDS011;18644;48.700;9.210;2023-04-24T03:26:29;0.57;;;0.55;;
32138;SDS011;18644;48.700;9.210;2023-04-24T03:28:55;0.52;;;0.52;;
32138;SDS011;18644;48.700;9.210;2023-04-24T03:31:22;1.13;;;0.57;;
32138;SDS011;18644;48.700;9.210;2023-04-24T03:33:49;2.40;;;0.65;;
32138;SDS011;18644;48.700;9.210;2023-04-24T03:36:16;0.85;;;0.70;;
32138;SDS011;18644;48.700;9.210;2023-04-24T03:38:44;0.60;;;0.60;;
32138;SDS011;18644;48.700;9.210;2023-04-24T03:41:12;0.88;;;0.68;;
32138;SDS011;18644;48.700;9.210;2023-04-24T03:43:39;0.77;;;0.50;;
32138;SDS011;18644;48.700;9.210;2023-04-24T03:46:06;0.57;;;0.43;;
32138;SDS011;18644;48.700;9.210;2023-04-24T03:48:34;0.50;;;0.50;;
32138;SDS011;18644;48.700;9.210;2023-04-24T03:51:01;0.60;;;0.60;;
32138;SDS011;18644;48.700;9.210;2023-04-24T03:53:27;0.60;;;0.60;;
32138;SDS011;18644;48.700;9.210;2023-04-24T03:55:54;0.60;;;0.60;;
32138;SDS011;18644;48.700;9.210;2023-04-24T03:58:23;0.60;;;0.60;;
32138;SDS011;18644;48.700;9.210;2023-04-24T04:00:50;0.50;;;0.50;;
32138;SDS011;18644;48.700;9.210;2023-04-24T04:03:17;1.63;;;0.60;;
32138;SDS011;18644;48.700;9.210;2023-04-24T04:05:43;0.60;;;0.50;;
32138;SDS011;18644;48.700;9.210;2023-04-24T04:08:10;0.52;;;0.50;;
32138;SDS011;18644;48.700;9.210;2023-04-24T04:10:37;0.50;;;0.50;;
32138;SDS011;18644;48.700;9.210;2023-04-24T04:13:04;2.45;;;0.57;;
32138;SDS011;18644;48.700;9.210;2023-04-24T04:15:33;0.60;;;0.60;;
32138;SDS011;18644;48.700;9.210;2023-04-24T04:18:00;1.33;;;0.50;;
32138;SDS011;18644;48.700;9.210;2023-04-24T04:20:27;0.88;;;0.63;;
32138;SDS011;18644;48.700;9.210;2023-04-24T04:22:54;0.90;;;0.57;;
32138;SDS011;18644;48.700;9.210;2023-04-24T04:25:21;0.82;;;0.60;;
32138;SDS011;18644;48.700;9.210;2023-04-24T04:27:48;1.08;;;0.50;;
32138;SDS011;18644;48.700;9.210;2023-04-24T04:30:16;4.28;;;1.13;;
32138;SDS011;18644;48.700;9.210;2023-04-24T04:32:44;0.50;;;0.50;;
32138;SDS011;18644;48.700;9.210;2023-04-24T04:35:11;1.75;;;0.50;;
32138;SDS011;18644;48.700;9.210;2023-04-24T04:37:38;0.50;;;0.50;;
32138;SDS011;18644;48.700;9.210;2023-04-24T04:40:06;1.60;;;0.80;;
32138;SDS011;18644;48.700;9.210;2023-04-24T04:42:36;1.53;;;0.60;;
32138;SDS011;18644;48.700;9.210;2023-04-24T04:45:07;1.30;;;0.63;;
32138;SDS011;18644;48.700;9.210;2023-04-24T04:47:37;0.80;;;0.80;;
32138;SDS011;18644;48.700;9.210;2023-04-24T04:50:08;0.68;;;0.60;;
32138;SDS011;18644;48.700;9.210;2023-04-24T04:52:36;1.13;;;0.60;;
32138;SDS011;18644;48.700;9.210;2023-04-24T04:55:04;4.53;;;0.90;;
32138;SDS011;18644;48.700;9.210;2023-04-24T04:57:32;0.70;;;0.70;;
32138;SDS011;18644;48.700;9.210;2023-04-24T04:59:59;0.80;;;0.80;;
32138;SDS011;18644;48.700;9.210;2023-04-24T05:02:27;0.57;;;0.57;;
32138;SDS011;18644;48.700;9.210;2023-04-24T05:04:54;0.60;;;0.60;;
32138;SDS011;18644;48.700;9.210;2023-04-24T05:07:23;2.67;;;1.17;;
32138;SDS011;18644;48.700;9.210;2023-04-24T05:09:50;0.70;;;0.70;;
32138;SDS011;18644;48.700;9.210;2023-04-24T05:12:17;2.75;;;0.75;;
32138;SDS011;18644;48.700;9.210;2023-04-24T05:14:44;2.35;;;1.13;;
32138;SDS011;18644;48.700;9.210;2023-04-24T05:17:11;2.80;;;0.90;;
32138;SDS011;18644;48.700;9.210;2023-04-24T05:19:38;0.68;;;0.68;;
32138;SDS011;18644;48.700;9.210;2023-04-24T05:22:05;0.70;;;0.70;;
32138;SDS011;18644;48.700;9.210;2023-04-24T05:24:34;1.15;;;0.90;;
32138;SDS011;18644;48.700;9.210;2023-04-24T05:27:01;1.20;;;0.80;;
32138;SDS011;18644;48.700;9.210;2023-04-24T05:29:29;0.70;;;0.70;;
32138;SDS011;18644;48.700;9.210;2023-04-24T05:31:56;1.65;;;0.98;;
32138;SDS011;18644;48.700;9.210;2023-04-24T05:34:23;2.15;;;0.80;;
32138;SDS011;18644;48.700;9.210;2023-04-24T05:36:50;1.25;;;1.00;;
32138;SDS011;18644;48.700;9.210;2023-04-24T05:39:18;1.48;;;1.15;;
32138;SDS011;18644;48.700;9.210;2023-04-24T05:41:46;1.52;;;1.00;;
32138;SDS011;18644;48.700;9.210;2023-04-24T05:44:13;2.72;;;0.90;;
32138;SDS011;18644;48.700;9.210;2023-04-24T05:46:40;1.52;;;1.00;;
32138;SDS011;18644;48.700;9.210;2023-04-24T05:49:07;0.95;;;0.88;;
32138;SDS011;18644;48.700;9.210;2023-04-24T05:51:34;1.98;;;0.88;;
32138;SDS011;18644;48.700;9.210;2023-04-24T05:54:01;1.10;;;1.00;;
32138;SDS011;18644;48.700;9.210;2023-04-24T05:56:28;7.13;;;1.00;;
32138;SDS011;18644;48.700;9.210;2023-04-24T05:58:57;1.00;;;0.90;;
32138;SDS011;18644;48.700;9.210;2023-04-24T06:01:24;0.90;;;0.90;;
32138;SDS011;18644;48.700;9.210;2023-04-24T06:03:51;1.60;;;1.00;;
32138;SDS011;18644;48.700;9.210;2023-04-24T06:06:18;1.13;;;1.02;;
32138;SDS011;18644;48.700;9.210;2023-04-24T06:08:45;1.67;;;1.08;;
32138;SDS011;18644;48.700;9.210;2023-04-24T06:11:12;1.20;;;1.10;;
32138;SDS011;18644;48.700;9.210;2023-04-24T06:13:39;2.47;;;0.77;;
32138;SDS011;18644;48.700;9.210;2023-04-24T06:16:07;1.77;;;0.93;;
32138;SDS011;18644;48.700;9.210;2023-04-24T06:18:34;1.08;;;1.00;;
32138;SDS011;18644;48.700;9.210;2023-04-24T06:21:01;0.75;;;0.75;;
32138;SDS011;18644;48.700;9.210;2023-04-24T06:23:28;1.17;;;0.82;;
32138;SDS011;18644;48.700;9.210;2023-04-24T06:25:57;1.10;;;1.00;;
32138;SDS011;18644;48.700;9.210;2023-04-24T06:28:24;1.10;;;1.00;;
32138;SDS011;18644;48.700;9.210;2023-04-24T06:30:51;1.10;;;1.00;;
32138;SDS011;18644;48.700;9.210;2023-04-24T06:33:19;0.98;;;0.90;;
32138;SDS011;18644;48.700;9.210;2023-04-24T06:35:46;1.10;;;1.00;;
32138;SDS011;18644;48.700;9.210;2023-04-24T06:38:13;1.73;;;1.00;;
32138;SDS011;18644;48.700;9.210;2023-04-24T06:40:41;0.80;;;0.80;;
32138;SDS011;18644;48.700;9.210;2023-04-24T06:43:07;1.33;;;1.10;;
32138;SDS011;18644;48.700;9.210;2023-04-24T06:45:35;1.08;;;0.98;;
32138;SDS011;18644;48.700;9.210;2023-04-24T06:48:04;0.90;;;0.90;;
32138;SDS011;18644;48.700;9.210;2023-04-24T06:50:32;0.93;;;0.80;;
32138;SDS011;18644;48.700;9.210;2023-04-24T06:52:58;1.52;;;0.80;;
32138;SDS011;18644;48.700;9.210;2023-04-24T06:55:25;1.15;;;1.05;;
32138;SDS011;18644;48.700;9.210;2023-04-24T06:57:52;2.47;;;1.08;;
32138;SDS011;18644;48.700;9.210;2023-04-24T07:00:19;1.48;;;0.90;;
32138;SDS011;18644;48.700;9.210;2023-04-24T07:02:49;1.05;;;0.80;;
32138;SDS011;18644;48.700;9.210;2023-04-24T07:05:16;1.20;;;1.10;;
32138;SDS011;18644;48.700;9.210;2023-04-24T07:07:46;1.17;;;0.90;;
32138;SDS011;18644;48.700;9.210;2023-04-24T07:10:14;1.75;;;1.05;;
32138;SDS011;18644;48.700;9.210;2023-04-24T07:12:41;0.57;;;0.57;;
32138;SDS011;18644;48.700;9.210;2023-04-24T07:15:08;0.90;;;0.90;;
32138;SDS011;18644;48.700;9.210;2023-04-24T07:17:36;2.03;;;1.00;;
32138;SDS011;18644;48.700;9.210;2023-04-24T07:20:08;0.95;;;0.90;;
32138;SDS011;18644;48.700;9.210;2023-04-24T07:22:37;0.90;;;0.90;;
32138;SDS011;18644;48.700;9.210;2023-04-24T07:25:06;0.85;;;0.85;;
32138;SDS011;18644;48.700;9.210;2023-04-24T07:27:34;2.03;;;1.10;;
32138;SDS011;18644;48.700;9.210;2023-04-24T07:30:02;1.42;;;0.95;;
32138;SDS011;18644;48.700;9.210;2023-04-24T07:32:30;2.10;;;1.02;;
32138;SDS011;18644;48.700;9.210;2023-04-24T07:34:57;0.73;;;0.70;;
32138;SDS011;18644;48.700;9.210;2023-04-24T07:37:23;1.00;;;0.80;;
32138;SDS011;18644;48.700;9.210;2023-04-24T07:39:50;0.80;;;0.80;;
32138;SDS011;18644;48.700;9.210;2023-04-24T07:42:19;0.75;;;0.75;;
32138;SDS011;18644;48.700;9.210;2023-04-24T07:44:45;1.75;;;0.80;;
32138;SDS011;18644;48.700;9.210;2023-04-24T07:47:12;0.60;;;0.60;;
32138;SDS011;18644;48.700;9.210;2023-04-24T07:49:40;2.05;;;1.10;;
32138;SDS011;18644;48.700;9.210;2023-04-24T07:52:08;1.63;;;1.17;;
32138;SDS011;18644;48.700;9.210;2023-04-24T07:54:35;1.27;;;0.60;;
32138;SDS011;18644;48.700;9.210;2023-04-24T07:57:03;1.73;;;0.90;;
32138;SDS011;18644;48.700;9.210;2023-04-24T07:59:32;0.85;;;0.80;;
32138;SDS011;18644;48.700;9.210;2023-04-24T08:01:59;0.80;;;0.80;;
32138;SDS011;18644;48.700;9.210;2023-04-24T08:04:26;2.47;;;0.77;;
32138;SDS011;18644;48.700;9.210;2023-04-24T08:06:53;1.83;;;0.80;;
32138;SDS011;18644;48.700;9.210;2023-04-24T08:09:20;1.95;;;1.00;;
32138;SDS011;18644;48.700;9.210;2023-04-24T08:11:47;0.82;;;0.82;;
32138;SDS011;18644;48.700;9.210;2023-04-24T08:14:14;1.90;;;1.00;;
32138;SDS011;18644;48.700;9.210;2023-04-24T08:16:42;1.10;;;1.10;;
32138;SDS011;18644;48.700;9.210;2023-04-24T08:19:09;2.10;;;1.00;;
32138;SDS011;18644;48.700;9.210;2023-04-24T08:21:36;2.28;;;1.17;;
32138;SDS011;18644;48.700;9.210;2023-04-24T08:24:02;0.90;;;0.90;;
32138;SDS011;18644;48.700;9.210;2023-04-24T08:26:32;0.90;;;0.90;;
32138;SDS011;18644;48.700;9.210;2023-04-24T08:28:59;0.85;;;0.85;;
32138;SDS011;18644;48.700;9.210;2023-04-24T08:31:26;2.42;;;0.98;;
32138;SDS011;18644;48.700;9.210;2023-04-24T08:33:54;0.95;;;0.80;;
32138;SDS011;18644;48.700;9.210;2023-04-24T08:36:21;1.80;;;1.00;;
32138;SDS011;18644;48.700;9.210;2023-04-24T08:38:48;1.70;;;1.00;;
32138;SDS011;18644;48.700;9.210;2023-04-24T08:41:15;1.33;;;0.85;;
32138;SDS011;18644;48.700;9.210;2023-04-24T08:43:45;1.70;;;0.90;;
32138;SDS011;18644;48.700;9.210;2023-04-24T08:46:13;1.15;;;1.00;;
32138;SDS011;18644;48.700;9.210;2023-04-24T08:48:41;2.58;;;0.98;;
32138;SDS011;18644;48.700;9.210;2023-04-24T08:51:10;1.10;;;1.00;;
32138;SDS011;18644;48.700;9.210;2023-04-24T08:53:37;1.50;;;1.00;;
32138;SDS011;18644;48.700;9.210;2023-04-24T08:56:06;1.30;;;1.00;;
32138;SDS011;18644;48.700;9.210;2023-04-24T08:58:33;1.48;;;0.95;;
32138;SDS011;18644;48.700;9.210;2023-04-24T09:01:02;0.90;;;0.90;;
32138;SDS011;18644;48.700;9.210;2023-04-24T09:03:29;1.35;;;1.02;;
32138;SDS011;18644;48.700;9.210;2023-04-24T09:05:57;1.25;;;0.90;;
32138;SDS011;18644;48.700;9.210;2023-04-24T09:08:26;1.98;;;1.15;;
32138;SDS011;18644;48.700;9.210;2023-04-24T09:10:55;1.27;;;1.00;;
32138;SDS011;18644;48.700;9.210;2023-04-24T09:13:23;1.35;;;1.08;;
32138;SDS011;18644;48.700;9.210;2023-04-24T09:15:50;1.25;;;1.10;;
32138;SDS011;18644;48.700;9.210;2023-04-24T09:18:19;2.85;;;1.23;;
32138;SDS011;18644;48.700;9.210;2023-04-24T09:23:35;1.35;;;1.00;;
32138;SDS011;18644;48.700;9.210;2023-04-24T09:26:02;2.53;;;1.10;;
32138;SDS011;18644;48.700;9.210;2023-04-24T09:28:32;1.63;;;1.05;;
32138;SDS011;18644;48.700;9.210;2023-04-24T09:31:05;1.10;;;1.00;;
32138;SDS011;18644;48.700;9.210;2023-04-24T09:33:34;2.85;;;0.98;;
32138;SDS011;18644;48.700;9.210;2023-04-24T09:36:01;2.55;;;0.90;;
32138;SDS011;18644;48.700;9.210;2023-04-24T09:38:32;1.05;;;0.77;;
32138;SDS011;18644;48.700;9.210;2023-04-24T09:41:02;1.35;;;1.02;;
32138;SDS011;18644;48.700;9.210;2023-04-24T09:43:31;0.75;;;0.70;;
32138;SDS011;18644;48.700;9.210;2023-04-24T09:45:59;3.47;;;0.85;;
32138;SDS011;18644;48.700;9.210;2023-04-24T09:48:32;1.83;;;0.95;;
32138;SDS011;18644;48.700;9.210;2023-04-24T09:51:00;0.82;;;0.70;;
32138;SDS011;18644;48.700;9.210;2023-04-24T09:53:29;3.13;;;0.88;;
32138;SDS011;18644;48.700;9.210;2023-04-24T09:56:00;1.58;;;0.80;;
32138;SDS011;18644;48.700;9.210;2023-04-24T09:58:29;1.58;;;0.80;;
32138;SDS011;18644;48.700;9.210;2023-04-24T10:00:56;2.65;;;0.77;;
32138;SDS011;18644;48.700;9.210;2023-04-24T10:03:26;1.15;;;0.73;;
32138;SDS011;18644;48.700;9.210;2023-04-24T10:05:57;1.38;;;0.93;;
32138;SDS011;18644;48.700;9.210;2023-04-24T10:08:25;1.48;;;0.80;;
32138;SDS011;18644;48.700;9.210;2023-04-24T10:11:00;0.70;;;0.70;;
32138;SDS011;18644;48.700;9.210;2023-04-24T10:13:28;1.45;;;0.70;;
32138;SDS011;18644;48.700;9.210;2023-04-24T10:15:54;1.35;;;0.90;;
32138;SDS011;18644;48.700;9.210;2023-04-24T10:18:25;0.80;;;0.70;;
32138;SDS011;18644;48.700;9.210;2023-04-24T10:20:53;2.42;;;0.80;;
32138;SDS011;18644;48.700;9.210;2023-04-24T10:23:21;1.02;;;0.55;;
32138;SDS011;18644;48.700;9.210;2023-04-24T10:25:48;0.88;;;0.85;;
32138;SDS011;18644;48.700;9.210;2023-04-24T10:28:18;1.40;;;0.77;;
32138;SDS011;18644;48.700;9.210;2023-04-24T10:30:46;0.85;;;0.75;;
32138;SDS011;18644;48.700;9.210;2023-04-24T10:33:14;0.80;;;0.60;;
32138;SDS011;18644;48.700;9.210;2023-04-24T10:35:44;0.60;;;0.60;;
32138;SDS011;18644;48.700;9.210;2023-04-24T10:38:14;2.50;;;0.68;;
32138;SDS011;18644;48.700;9.210;2023-04-24T10:40:49;0.88;;;0.75;;
32138;SDS011;18644;48.700;9.210;2023-04-24T10:43:16;0.75;;;0.70;;
32138;SDS011;18644;48.700;9.210;2023-04-24T10:46:00;0.85;;;0.80;;
32138;SDS011;18644;48.700;9.210;2023-04-24T10:48:28;1.20;;;0.80;;
32138;SDS011;18644;48.700;9.210;2023-04-24T10:50:55;2.45;;;0.55;;
32138;SDS011;18644;48.700;9.210;2023-04-24T10:53:22;0.93;;;0.70;;
32138;SDS011;18644;48.700;9.210;2023-04-24T10:55:57;0.73;;;0.73;;
32138;SDS011;18644;48.700;9.210;2023-04-24T10:58:36;0.67;;;0.60;;
32138;SDS011;18644;48.700;9.210;2023-04-24T11:01:05;1.27;;;0.80;;
32138;SDS011;18644;48.700;9.210;2023-04-24T11:03:33;1.48;;;0.95;;
32138;SDS011;18644;48.700;9.210;2023-04-24T11:06:02;1.10;;;0.60;;
32138;SDS011;18644;48.700;9.210;2023-04-24T11:08:37;1.02;;;0.90;;
32138;SDS011;18644;48.700;9.210;2023-04-24T11:11:09;1.05;;;0.85;;
32138;SDS011;18644;48.700;9.210;2023-04-24T11:16:35;0.60;;;0.60;;
32138;SDS011;18644;48.700;9.210;2023-04-24T11:19:09;1.48;;;0.70;;
32138;SDS011;18644;48.700;9.210;2023-04-24T11:21:45;1.60;;;0.98;;
32138;SDS011;18644;48.700;9.210;2023-04-24T11:24:30;1.27;;;0.95;;
32138;SDS011;18644;48.700;9.210;2023-04-24T11:27:09;0.90;;;0.90;;
32138;SDS011;18644;48.700;9.210;2023-04-24T11:29:45;0.90;;;0.90;;
32138;SDS011;18644;48.700;9.210;2023-04-24T11:32:17;1.27;;;1.00;;
32138;SDS011;18644;48.700;9.210;2023-04-24T11:34:55;1.08;;;0.80;;
32138;SDS011;18644;48.700;9.210;2023-04-24T11:37:24;1.70;;;0.90;;
32138;SDS011;18644;48.700;9.210;2023-04-24T11:39:54;0.63;;;0.63;;
32138;SDS011;18644;48.700;9.210;2023-04-24T11:42:22;1.95;;;1.02;;
32138;SDS011;18644;48.700;9.210;2023-04-24T11:44:53;2.03;;;0.90;;
32138;SDS011;18644;48.700;9.210;2023-04-24T11:47:27;2.30;;;0.60;;
32138;SDS011;18644;48.700;9.210;2023-04-24T11:49:55;1.38;;;0.70;;
32138;SDS011;18644;48.700;9.210;2023-04-24T11:52:22;0.98;;;0.98;;
32138;SDS011;18644;48.700;9.210;2023-04-24T11:54:49;1.00;;;0.77;;
32138;SDS011;18644;48.700;9.210;2023-04-24T11:57:16;0.70;;;0.70;;
32138;SDS011;18644;48.700;9.210;2023-04-24T11:59:46;0.80;;;0.80;;
32138;SDS011;18644;48.700;9.210;2023-04-24T12:02:21;0.80;;;0.80;;
32138;SDS011;18644;48.700;9.210;2023-04-24T12:04:48;4.20;;;1.02;;
32138;SDS011;18644;48.700;9.210;2023-04-24T12:07:16;1.85;;;0.85;;
32138;SDS011;18644;48.700;9.210;2023-04-24T12:09:43;1.23;;;0.80;;
32138;SDS011;18644;48.700;9.210;2023-04-24T12:12:12;1.27;;;0.95;;
32138;SDS011;18644;48.700;9.210;2023-04-24T12:14:43;2.45;;;0.90;;
32138;SDS011;18644;48.700;9.210;2023-04-24T12:17:14;1.27;;;1.02;;
32138;SDS011;18644;48.700;9.210;2023-04-24T12:19:46;1.45;;;1.15;;
32138;SDS011;18644;48.700;9.210;2023-04-24T12:22:15;0.77;;;0.70;;
32138;SDS011;18644;48.700;9.210;2023-04-24T12:24:55;0.70;;;0.70;;
32138;SDS011;18644;48.700;9.210;2023-04-24T12:27:24;2.63;;;1.20;;
32138;SDS011;18644;48.700;9.210;2023-04-24T12:29:51;1.52;;;1.02;;
32138;SDS011;18644;48.700;9.210;2023-04-24T12:32:19;0.90;;;0.82;;
32138;SDS011;18644;48.700;9.210;2023-04-24T12:34:47;1.60;;;0.98;;
32138;SDS011;18644;48.700;9.210;2023-04-24T12:37:16;2.47;;;1.00;;
32138;SDS011;18644;48.700;9.210;2023-04-24T12:39:44;0.75;;;0.75;;
32138;SDS011;18644;48.700;9.210;2023-04-24T12:42:25;0.77;;;0.77;;
32138;SDS011;18644;48.700;9.210;2023-04-24T12:44:55;2.42;;;0.80;;
32138;SDS011;18644;48.700;9.210;2023-04-24T12:47:24;2.10;;;0.80;;
32138;SDS011;18644;48.700;9.210;2023-04-24T12:49:53;3.17;;;0.82;;
32138;SDS011;18644;48.700;9.210;2023-04-24T12:52:20;3.42;;;0.93;;
32138;SDS011;18644;48.700;9.210;2023-04-24T12:54:48;1.85;;;1.15;;
32138;SDS011;18644;48.700;9.210;2023-04-24T12:57:16;2.10;;;0.90;;
32138;SDS011;18644;48.700;9.210;2023-04-24T12:59:43;2.75;;;0.90;;
32138;SDS011;18644;48.700;9.210;2023-04-24T13:02:10;2.80;;;1.05;;
32138;SDS011;18644;48.700;9.210;2023-04-24T13:04:37;1.27;;;1.10;;
32138;SDS011;18644;48.700;9.210;2023-04-24T13:07:06;1.70;;;0.68;;
32138;SDS011;18644;48.700;9.210;2023-04-24T13:09:34;0.90;;;0.80;;
32138;SDS011;18644;48.700;9.210;2023-04-24T13:12:01;0.60;;;0.60;;
32138;SDS011;18644;48.700;9.210;2023-04-24T13:14:30;2.33;;;1.00;;
32138;SDS011;18644;48.700;9.210;2023-04-24T13:16:57;1.90;;;0.70;;
32138;SDS011;18644;48.700;9.210;2023-04-24T13:19:24;0.63;;;0.63;;
32138;SDS011;18644;48.700;9.210;2023-04-24T13:21:51;0.90;;;0.90;;
32138;SDS011;18644;48.700;9.210;2023-04-24T13:24:21;1.63;;;1.00;;
32138;SDS011;18644;48.700;9.210;2023-04-24T13:26:50;2.28;;;0.70;;
32138;SDS011;18644;48.700;9.210;2023-04-24T13:29:16;1.38;;;1.00;;
32138;SDS011;18644;48.700;9.210;2023-04-24T13:31:43;1.75;;;0.93;;
32138;SDS011;18644;48.700;9.210;2023-04-24T13:34:10;1.15;;;0.90;;
32138;SDS011;18644;48.700;9.210;2023-04-24T13:36:37;2.40;;;0.95;;
32138;SDS011;18644;48.700;9.210;2023-04-24T13:39:04;3.22;;;0.90;;
32138;SDS011;18644;48.700;9.210;2023-04-24T13:41:33;0.73;;;0.73;;
32138;SDS011;18644;48.700;9.210;2023-04-24T13:44:01;1.95;;;0.80;;
32138;SDS011;18644;48.700;9.210;2023-04-24T13:46:28;1.50;;;1.10;;
32138;SDS011;18644;48.700;9.210;2023-04-24T13:48:55;0.82;;;0.82;;
32138;SDS011;18644;48.700;9.210;2023-04-24T13:51:22;1.23;;;1.10;;
32138;SDS011;18644;48.700;9.210;2023-04-24T13:53:52;1.42;;;1.05;;
32138;SDS011;18644;48.700;9.210;2023-04-24T13:56:21;1.85;;;0.80;;
32138;SDS011;18644;48.700;9.210;2023-04-24T13:58:50;1.45;;;1.10;;
32138;SDS011;18644;48.700;9.210;2023-04-24T14:01:16;4.10;;;1.45;;
32138;SDS011;18644;48.700;9.210;2023-04-24T14:03:43;1.17;;;1.08;;
32138;SDS011;18644;48.700;9.210;2023-04-24T14:06:10;1.02;;;0.90;;
32138;SDS011;18644;48.700;9.210;2023-04-24T14:08:37;1.10;;;1.00;;
32138;SDS011;18644;48.700;9.210;2023-04-24T14:11:04;1.55;;;1.10;;
32138;SDS011;18644;48.700;9.210;2023-04-24T14:13:31;2.80;;;1.02;;
32138;SDS011;18644;48.700;9.210;2023-04-24T14:15:59;1.50;;;1.40;;
32138;SDS011;18644;48.700;9.210;2023-04-24T14:18:26;1.40;;;1.02;;
32138;SDS011;18644;48.700;9.210;2023-04-24T14:20:53;1.13;;;1.02;;
32138;SDS011;18644;48.700;9.210;2023-04-24T14:23:20;1.27;;;1.10;;
32138;SDS011;18644;48.700;9.210;2023-04-24T14:25:48;1.10;;;1.00;;
32138;SDS011;18644;48.700;9.210;2023-04-24T14:28:17;1.77;;;1.20;;
32138;SDS011;18644;48.700;9.210;2023-04-24T14:30:45;1.33;;;1.02;;
32138;SDS011;18644;48.700;9.210;2023-04-24T14:33:16;0.90;;;0.90;;
32138;SDS011;18644;48.700;9.210;2023-04-24T14:35:44;1.83;;;1.30;;
32138;SDS011;18644;48.700;9.210;2023-04-24T14:38:12;1.30;;;1.00;;
32138;SDS011;18644;48.700;9.210;2023-04-24T14:40:40;1.23;;;1.00;;
32138;SDS011;18644;48.700;9.210;2023-04-24T14:43:07;1.33;;;1.00;;
32138;SDS011;18644;48.700;9.210;2023-04-24T14:45:34;1.27;;;1.17;;
32138;SDS011;18644;48.700;9.210;2023-04-24T14:48:03;1.73;;;1.00;;
32138;SDS011;18644;48.700;9.210;2023-04-24T14:50:33;1.30;;;1.20;;
32138;SDS011;18644;48.700;9.210;2023-04-24T14:53:00;1.30;;;1.20;;
32138;SDS011;18644;48.700;9.210;2023-04-24T14:55:27;1.00;;;1.00;;
32138;SDS011;18644;48.700;9.210;2023-04-24T14:57:54;1.27;;;1.10;;
32138;SDS011;18644;48.700;9.210;2023-04-24T15:00:21;1.48;;;1.20;;
32138;SDS011;18644;48.700;9.210;2023-04-24T15:02:49;2.00;;;1.20;;
32138;SDS011;18644;48.700;9.210;2023-04-24T15:05:16;1.45;;;1.35;;
32138;SDS011;18644;48.700;9.210;2023-04-24T15:07:44;2.70;;;1.20;;